Time;durP1;ratioP1;P1;durP2;ratioP2;P2;SDS_P1;SDS_P2;PMS_P1;PMS_P2;Temp;Humidity;BMP_temperature;BMP_pressure;BME280_temperature;BME280_humidity;BME280_pressure;Samples;Min_cycle;Max_cycle;Signal;HPM_P1;HPM_P2
2020/12/22 00:02:01;;;;;;;25.87;13.93;;;;;;;4.17;99.18;96726.53;5070224;28;20255;-70
2020/12/22 00:04:31;;;;;;;35.10;17.63;;;;;;;4.11;98.84;96724.06;5070406;28;20656;-70
2020/12/22 00:06:58;;;;;;;35.27;17.53;;;;;;;4.20;97.99;96726.09;5070240;28;20196;-70
2020/12/22 00:09:24;;;;;;;27.93;15.17;;;;;;;4.18;98.05;96732.47;5070333;28;20222;-69
2020/12/22 00:11:51;;;;;;;23.57;14.47;;;;;;;4.18;98.08;96733.25;5069958;28;20195;-69
2020/12/22 00:14:18;;;;;;;24.93;14.70;;;;;;;4.18;99.19;96727.31;5070106;28;20668;-69
2020/12/22 00:16:46;;;;;;;24.27;14.27;;;;;;;4.19;98.96;96734.00;5070054;28;20197;-69
2020/12/22 00:19:13;;;;;;;21.77;13.03;;;;;;;4.28;98.84;96728.31;5070145;28;20596;-69
2020/12/22 00:21:39;;;;;;;35.30;18.20;;;;;;;4.30;98.24;96725.53;5069905;28;20235;-68
2020/12/22 00:24:07;;;;;;;40.63;22.37;;;;;;;4.32;98.09;96719.19;5070166;28;20607;-70
2020/12/22 00:26:34;;;;;;;33.37;19.40;;;;;;;4.36;97.96;96718.72;5069763;28;20683;-69
2020/12/22 00:29:01;;;;;;;36.70;20.30;;;;;;;4.33;98.54;96730.25;5070027;28;20197;-70
2020/12/22 00:31:28;;;;;;;38.47;21.87;;;;;;;4.25;99.26;96733.13;5069857;28;20226;-70
2020/12/22 00:33:55;;;;;;;32.17;18.33;;;;;;;4.31;99.31;96738.19;5069721;28;20762;-68
2020/12/22 00:36:22;;;;;;;29.43;16.53;;;;;;;4.37;98.77;96733.16;5070105;28;20200;-69
2020/12/22 00:38:49;;;;;;;28.13;16.00;;;;;;;4.36;99.55;96731.59;5069696;28;20242;-69
2020/12/22 00:41:16;;;;;;;21.40;14.53;;;;;;;4.33;99.99;96731.00;5069696;28;21054;-67
2020/12/22 00:43:44;;;;;;;25.77;15.30;;;;;;;4.41;99.60;96734.28;5069614;28;20232;-69
2020/12/22 00:46:16;;;;;;;23.13;13.53;;;;;;;4.39;99.50;96736.28;5069828;28;20279;-69
2020/12/22 00:48:45;;;;;;;28.17;16.93;;;;;;;4.38;99.28;96734.72;5069712;28;20201;-69
2020/12/22 00:51:20;;;;;;;34.63;17.43;;;;;;;4.46;99.68;96736.97;5069745;28;20203;-68
2020/12/22 00:53:47;;;;;;;34.00;16.87;;;;;;;4.37;99.78;96739.09;5069930;28;20561;-69
2020/12/22 00:56:14;;;;;;;28.10;15.43;;;;;;;4.32;100.00;96734.63;5069820;28;20261;-70
2020/12/22 01:02:05;;;;;;;25.03;15.30;;;;;;;4.34;100.00;96739.50;5069731;28;20195;-69
2020/12/22 01:04:32;;;;;;;21.17;13.80;;;;;;;4.39;100.00;96731.91;5069776;28;20220;-69
2020/12/22 01:06:59;;;;;;;24.23;15.03;;;;;;;4.38;100.00;96732.16;5069954;28;20197;-68
2020/12/22 01:09:26;;;;;;;26.73;16.27;;;;;;;4.28;100.00;96725.00;5069689;28;20196;-68
2020/12/22 01:11:54;;;;;;;30.23;17.77;;;;;;;4.31;100.00;96727.91;5069701;28;20289;-69
2020/12/22 01:14:20;;;;;;;61.20;26.33;;;;;;;4.35;100.00;96728.22;5072298;28;20197;-69
2020/12/22 01:16:47;;;;;;;42.67;20.67;;;;;;;4.34;100.00;96724.06;5073151;28;20199;-70
2020/12/22 01:19:14;;;;;;;117.83;38.30;;;;;;;4.28;100.00;96725.75;5073442;28;20200;-69
2020/12/22 01:21:41;;;;;;;70.77;29.37;;;;;;;4.25;100.00;96733.94;5072996;28;20289;-66
2020/12/22 01:24:09;;;;;;;56.13;26.60;;;;;;;4.30;100.00;96726.31;5073202;28;20659;-69
2020/12/22 01:26:35;;;;;;;87.40;34.77;;;;;;;4.26;100.00;96727.78;5073002;28;20188;-69
2020/12/22 01:29:02;;;;;;;94.13;35.53;;;;;;;4.27;100.00;96721.63;5072957;28;20279;-67
2020/12/22 01:31:30;;;;;;;118.80;40.10;;;;;;;4.28;100.00;96725.00;5073092;28;20192;-70
2020/12/22 01:33:58;;;;;;;78.27;34.50;;;;;;;4.33;100.00;96727.69;5072986;28;20245;-69
2020/12/22 01:36:26;;;;;;;123.90;45.77;;;;;;;4.36;100.00;96729.00;5072925;28;20197;-69
2020/12/22 01:38:53;;;;;;;97.07;37.27;;;;;;;4.33;100.00;96725.88;5072748;28;20196;-67
2020/12/22 01:41:21;;;;;;;78.00;34.37;;;;;;;4.39;100.00;96726.75;5073039;28;20232;-69
2020/12/22 01:44:05;;;;;;;58.73;29.10;;;;;;;4.40;100.00;96732.69;5073045;28;20228;-69
2020/12/22 01:46:35;;;;;;;63.97;30.10;;;;;;;4.44;100.00;96729.44;5072839;28;20200;-69
2020/12/22 01:49:04;;;;;;;59.60;29.43;;;;;;;4.47;100.00;96720.53;5072931;28;20231;-70
2020/12/22 01:51:31;;;;;;;56.43;28.10;;;;;;;4.50;100.00;96722.63;5072550;28;20555;-69
2020/12/22 01:53:58;;;;;;;58.10;29.20;;;;;;;4.52;100.00;96720.63;5072583;28;20230;-69
2020/12/22 01:56:26;;;;;;;55.33;29.53;;;;;;;4.50;100.00;96720.06;5072530;28;20196;-69
2020/12/22 01:58:53;;;;;;;66.60;31.07;;;;;;;4.49;100.00;96716.69;5072617;28;20258;-69
2020/12/22 02:01:20;;;;;;;55.27;29.23;;;;;;;4.48;100.00;96709.22;5072319;28;20663;-70
2020/12/22 02:03:47;;;;;;;63.33;29.90;;;;;;;4.45;100.00;96713.00;5072333;28;20227;-69
2020/12/22 02:06:14;;;;;;;66.57;31.87;;;;;;;4.49;100.00;96715.91;5072211;28;20196;-68
2020/12/22 02:08:40;;;;;;;60.37;30.53;;;;;;;4.47;100.00;96716.16;5072206;28;20576;-69
2020/12/22 02:11:07;;;;;;;58.13;28.97;;;;;;;4.37;100.00;96708.22;5072219;28;20197;-69
2020/12/22 02:13:35;;;;;;;54.13;27.70;;;;;;;4.34;100.00;96716.34;5072439;28;20197;-69
2020/12/22 02:16:01;;;;;;;51.93;27.40;;;;;;;4.48;100.00;96716.94;5072469;28;20569;-69
2020/12/22 02:18:28;;;;;;;54.90;29.10;;;;;;;4.51;100.00;96713.91;5072426;28;20197;-70
2020/12/22 02:21:02;;;;;;;49.70;27.67;;;;;;;4.49;100.00;96718.47;5072047;28;20686;-70
2020/12/22 02:23:29;;;;;;;49.67;26.97;;;;;;;4.44;100.00;96710.66;5071998;28;20195;-70
2020/12/22 02:25:56;;;;;;;47.23;26.20;;;;;;;4.47;100.00;96705.06;5072428;28;20200;-70
2020/12/22 02:28:23;;;;;;;42.93;24.20;;;;;;;4.47;100.00;96702.50;5071985;28;20198;-69
2020/12/22 02:30:49;;;;;;;47.27;24.87;;;;;;;4.49;100.00;96701.25;5071821;28;20688;-70
2020/12/22 02:36:55;;;;;;;41.23;22.37;;;;;;;4.48;100.00;96699.72;5072111;28;20307;-68
2020/12/22 02:39:22;;;;;;;37.40;20.23;;;;;;;4.36;100.00;96698.13;5072072;28;20220;-70
2020/12/22 02:41:49;;;;;;;38.80;20.87;;;;;;;4.40;100.00;96699.25;5071272;28;20227;-70
2020/12/22 02:44:16;;;;;;;32.53;19.17;;;;;;;4.43;100.00;96703.97;5071697;28;20196;-70
2020/12/22 02:46:42;;;;;;;32.70;19.50;;;;;;;4.46;100.00;96695.78;5071799;28;20196;-70
2020/12/22 02:49:09;;;;;;;33.53;20.60;;;;;;;4.41;100.00;96700.81;5071737;28;20193;-69
2020/12/22 02:51:36;;;;;;;34.97;19.67;;;;;;;4.40;100.00;96699.25;5071610;28;20251;-68
2020/12/22 02:54:04;;;;;;;37.10;20.93;;;;;;;4.26;100.00;96699.47;5071769;28;20715;-70
2020/12/22 02:56:31;;;;;;;36.43;21.83;;;;;;;4.38;100.00;96693.56;5071212;28;20215;-70
2020/12/22 02:58:57;;;;;;;34.27;20.63;;;;;;;4.45;100.00;96701.94;5071891;28;20189;-68
2020/12/22 03:01:24;;;;;;;38.73;22.73;;;;;;;4.42;100.00;96687.72;5071197;28;20305;-70
2020/12/22 03:03:51;;;;;;;42.33;24.20;;;;;;;4.42;100.00;96692.88;5071284;28;20200;-70
2020/12/22 03:06:18;;;;;;;43.77;23.80;;;;;;;4.40;100.00;96691.53;5071300;28;20200;-69
2020/12/22 03:08:45;;;;;;;40.90;24.47;;;;;;;4.42;100.00;96692.09;5071021;28;20575;-69
2020/12/22 03:11:13;;;;;;;44.67;24.33;;;;;;;4.37;100.00;96686.84;5071083;28;20269;-70
2020/12/22 03:13:39;;;;;;;45.17;24.17;;;;;;;4.35;100.00;96687.06;5071227;28;20279;-69
2020/12/22 03:16:06;;;;;;;44.67;25.07;;;;;;;4.32;100.00;96682.38;5071038;28;20189;-70
2020/12/22 03:18:33;;;;;;;41.80;22.57;;;;;;;4.36;100.00;96677.53;5071007;28;20200;-69
2020/12/22 03:21:00;;;;;;;43.33;24.50;;;;;;;4.42;100.00;96682.59;5070947;28;20228;-69
2020/12/22 03:23:27;;;;;;;47.60;24.47;;;;;;;4.40;100.00;96673.50;5070766;28;20746;-69
2020/12/22 03:25:53;;;;;;;43.53;24.23;;;;;;;4.32;100.00;96667.72;5071024;28;20196;-68
2020/12/22 03:28:21;;;;;;;45.47;25.27;;;;;;;4.40;100.00;96664.00;5071204;28;20345;-69
2020/12/22 03:30:48;;;;;;;49.33;26.33;;;;;;;4.44;100.00;96665.13;5071054;28;20196;-69
2020/12/22 03:33:15;;;;;;;44.53;25.63;;;;;;;4.45;100.00;96665.91;5071143;28;20200;-69
2020/12/22 03:35:43;;;;;;;51.07;28.70;;;;;;;4.45;100.00;96668.47;5070015;28;20277;-69
2020/12/22 03:38:09;;;;;;;45.90;26.57;;;;;;;4.48;100.00;96673.19;5070597;28;20193;-69
2020/12/22 03:40:36;;;;;;;47.23;26.20;;;;;;;4.36;100.00;96673.19;5070550;28;20289;-69
2020/12/22 03:43:03;;;;;;;52.37;27.90;;;;;;;4.37;100.00;96668.81;5070324;28;20232;-70
2020/12/22 03:45:31;;;;;;;50.43;29.00;;;;;;;4.38;100.00;96672.97;5070634;28;20660;-69
2020/12/22 03:47:58;;;;;;;57.17;30.67;;;;;;;4.35;100.00;96676.75;5070581;28;20275;-70
2020/12/22 03:50:25;;;;;;;57.10;29.83;;;;;;;4.34;100.00;96673.41;5070358;28;20275;-69
2020/12/22 03:52:52;;;;;;;43.07;24.73;;;;;;;4.34;100.00;96673.41;5070351;28;20678;-69
2020/12/22 03:55:19;;;;;;;43.70;23.63;;;;;;;4.32;100.00;96665.13;5070508;28;20668;-69
2020/12/22 03:57:45;;;;;;;44.80;24.43;;;;;;;4.35;100.00;96656.19;5070438;28;20649;-69
2020/12/22 04:00:14;;;;;;;45.63;25.20;;;;;;;4.40;100.00;96653.72;5070051;28;20749;-69
2020/12/22 04:02:42;;;;;;;52.13;26.67;;;;;;;4.35;100.00;96661.31;5070210;28;20842;-70
2020/12/22 04:05:09;;;;;;;51.60;26.47;;;;;;;4.25;100.00;96667.03;5070173;28;20192;-70
2020/12/22 04:07:36;;;;;;;47.00;26.07;;;;;;;4.26;100.00;96673.75;5070431;28;20203;-70
2020/12/22 04:10:04;;;;;;;47.23;25.67;;;;;;;4.37;100.00;96666.25;5070115;28;20256;-69
2020/12/22 04:12:31;;;;;;;48.90;26.80;;;;;;;4.39;100.00;96667.59;5070060;28;20196;-70
2020/12/22 04:14:58;;;;;;;50.33;26.67;;;;;;;4.43;100.00;96667.94;5070024;28;20201;-68
2020/12/22 04:17:24;;;;;;;50.17;28.03;;;;;;;4.49;100.00;96667.00;5070106;28;20226;-68
2020/12/22 04:19:53;;;;;;;57.93;31.43;;;;;;;4.45;100.00;96671.03;5069958;28;20204;-69
2020/12/22 04:22:19;;;;;;;62.93;31.07;;;;;;;4.43;100.00;96666.16;5069950;28;20269;-64
2020/12/22 04:24:47;;;;;;;85.30;39.33;;;;;;;4.43;100.00;96675.66;5070073;28;20280;-69
2020/12/22 04:27:14;;;;;;;72.33;37.80;;;;;;;4.39;100.00;96667.59;5069805;28;20671;-68
2020/12/22 04:29:41;;;;;;;63.40;33.30;;;;;;;4.32;100.00;96670.28;5069922;28;20192;-69
2020/12/22 04:32:07;;;;;;;74.47;38.10;;;;;;;4.39;100.00;96664.22;5070246;28;20204;-69
2020/12/22 04:34:34;;;;;;;73.43;37.37;;;;;;;4.37;100.00;96668.81;5070108;28;20311;-69
2020/12/22 04:37:05;;;;;;;65.70;35.67;;;;;;;4.39;100.00;96667.59;5069864;28;20196;-70
2020/12/22 04:39:31;;;;;;;63.87;32.37;;;;;;;4.41;100.00;96672.50;5069831;28;20675;-69
2020/12/22 04:41:58;;;;;;;59.77;33.90;;;;;;;4.39;100.00;96667.59;5069526;28;20224;-70
2020/12/22 04:44:25;;;;;;;67.20;37.40;;;;;;;4.36;100.00;96677.53;5070063;28;20280;-71
2020/12/22 04:46:54;;;;;;;69.27;36.87;;;;;;;4.36;100.00;96682.69;5069978;28;20188;-69
2020/12/22 04:49:22;;;;;;;64.47;35.00;;;;;;;4.34;100.00;96683.69;5073987;28;20199;-68
2020/12/22 04:51:50;;;;;;;64.53;33.43;;;;;;;4.33;100.00;96679.56;5073934;28;20607;-69
2020/12/22 04:54:21;;;;;;;66.00;35.00;;;;;;;4.31;100.00;96685.94;5073728;28;20279;-68
2020/12/22 04:56:48;;;;;;;50.63;28.57;;;;;;;4.26;100.00;96680.69;5073757;28;20269;-69
2020/12/22 04:59:16;;;;;;;49.73;26.63;;;;;;;4.29;100.00;96688.72;5073525;28;20249;-69
2020/12/22 05:01:43;;;;;;;53.77;28.40;;;;;;;4.32;100.00;96688.28;5073350;28;20231;-69
2020/12/22 05:04:12;;;;;;;52.13;27.93;;;;;;;4.26;100.00;96686.63;5073438;28;20201;-69
2020/12/22 05:06:39;;;;;;;45.73;27.90;;;;;;;4.20;100.00;96679.78;5073462;28;20210;-70
2020/12/22 05:09:06;;;;;;;58.67;31.73;;;;;;;4.13;100.00;96679.13;5073347;28;20189;-68
2020/12/22 05:11:36;;;;;;;56.77;30.03;;;;;;;4.16;100.00;96678.66;5073309;28;20196;-69
2020/12/22 05:14:04;;;;;;;55.67;29.77;;;;;;;4.23;100.00;96678.56;5073410;28;20196;-71
2020/12/22 05:16:35;;;;;;;50.10;28.17;;;;;;;4.22;100.00;96682.13;5073381;28;20200;-69
2020/12/22 05:19:02;;;;;;;53.37;29.70;;;;;;;4.17;100.00;96685.38;5073261;28;20257;-69
2020/12/22 05:21:35;;;;;;;49.40;28.30;;;;;;;4.09;100.00;96680.56;5073109;28;20220;-70
2020/12/22 05:24:02;;;;;;;50.40;26.83;;;;;;;4.08;100.00;96679.00;5073750;28;20197;-69
2020/12/22 05:26:33;;;;;;;50.03;26.63;;;;;;;4.19;100.00;96688.50;5073150;28;20745;-68
2020/12/22 05:29:10;;;;;;;72.37;35.60;;;;;;;4.26;100.00;96684.03;5073250;28;20200;-70
2020/12/22 05:31:42;;;;;;;88.33;45.23;;;;;;;4.23;100.00;96681.91;5073211;28;20669;-70
2020/12/22 05:34:11;;;;;;;160.50;64.00;;;;;;;4.31;100.00;96688.50;5072920;28;20228;-69
2020/12/22 05:36:40;;;;;;;225.70;87.70;;;;;;;4.30;100.00;96692.09;5072998;28;20660;-69
2020/12/22 05:39:08;;;;;;;100.67;49.30;;;;;;;4.31;100.00;96691.88;5072832;28;20305;-70
2020/12/22 05:41:35;;;;;;;96.20;45.73;;;;;;;4.33;100.00;96691.66;5072912;28;20228;-70
2020/12/22 05:44:03;;;;;;;80.23;40.90;;;;;;;4.29;100.00;96690.50;5072926;28;20228;-69
2020/12/22 05:46:34;;;;;;;85.53;42.67;;;;;;;4.24;100.00;96693.75;5072616;28;20192;-69
2020/12/22 05:49:01;;;;;;;66.77;35.30;;;;;;;4.28;100.00;96697.44;5072882;28;20192;-69
2020/12/22 05:51:28;;;;;;;88.77;43.20;;;;;;;4.34;100.00;96696.56;5072386;28;20192;-69
2020/12/22 05:54:04;;;;;;;78.53;38.77;;;;;;;4.34;100.00;96685.47;5072875;28;20197;-69
2020/12/22 05:56:31;;;;;;;91.03;43.80;;;;;;;4.41;100.00;96693.09;5072763;28;20197;-70
2020/12/22 05:58:58;;;;;;;67.67;37.23;;;;;;;4.34;100.00;96688.84;5071990;28;20206;-69
2020/12/22 06:01:30;;;;;;;70.33;36.40;;;;;;;4.38;100.00;96696.13;5072390;28;20247;-68
2020/12/22 06:03:59;;;;;;;66.33;37.43;;;;;;;4.37;100.00;96690.19;5072406;28;20196;-68
2020/12/22 06:06:27;;;;;;;58.50;34.97;;;;;;;4.36;100.00;96687.84;5072475;28;20249;-69
2020/12/22 06:08:54;;;;;;;69.00;36.93;;;;;;;4.37;100.00;96690.19;5072454;28;20208;-70
2020/12/22 06:11:21;;;;;;;72.80;41.37;;;;;;;4.37;100.00;96694.56;5072476;28;20188;-69
2020/12/22 06:13:49;;;;;;;60.83;35.77;;;;;;;4.40;100.00;96688.94;5072376;28;20200;-69
2020/12/22 06:16:17;;;;;;;85.53;46.03;;;;;;;4.38;100.00;96690.97;5072397;28;20196;-69
2020/12/22 06:18:46;;;;;;;71.83;40.10;;;;;;;4.44;99.65;96684.91;5072124;28;20196;-69
2020/12/22 06:21:16;;;;;;;68.63;35.50;;;;;;;4.40;100.00;96688.94;5072309;28;20231;-69
2020/12/22 06:23:43;;;;;;;70.47;37.33;;;;;;;4.41;100.00;96675.88;5072168;28;20258;-70
2020/12/22 06:26:11;;;;;;;66.27;35.97;;;;;;;4.42;100.00;96672.28;5072279;28;20585;-68
2020/12/22 06:28:39;;;;;;;93.87;47.77;;;;;;;4.53;100.00;96673.28;5071879;28;20199;-70
2020/12/22 06:31:22;;;;;;;112.37;53.80;;;;;;;4.54;99.63;96682.56;5071952;28;20193;-70
2020/12/22 06:33:49;;;;;;;140.57;68.37;;;;;;;4.53;99.81;96683.59;5072129;28;20638;-69
2020/12/22 06:36:18;;;;;;;104.37;50.23;;;;;;;4.60;99.64;96682.44;5071790;28;20223;-69
2020/12/22 06:38:46;;;;;;;82.77;43.10;;;;;;;4.57;99.31;96676.97;5071773;28;20200;-68
2020/12/22 06:41:27;;;;;;;88.13;44.20;;;;;;;4.57;99.61;96674.41;5071542;28;20282;-67
2020/12/22 06:43:55;;;;;;;105.87;56.97;;;;;;;4.56;98.88;96673.63;5072102;28;20234;-70
2020/12/22 06:46:39;;;;;;;198.20;90.37;;;;;;;4.62;98.86;96680.44;5071942;28;20200;-69
2020/12/22 06:49:09;;;;;;;176.10;75.13;;;;;;;4.64;98.08;96669.91;5071533;28;20623;-68
2020/12/22 06:51:38;;;;;;;125.40;57.43;;;;;;;4.59;98.88;96673.16;5071572;28;20283;-70
2020/12/22 06:54:05;;;;;;;94.10;49.07;;;;;;;4.70;98.03;96674.16;5071460;28;20269;-68
2020/12/22 06:56:40;;;;;;;70.67;39.80;;;;;;;4.63;99.02;96673.50;5071798;28;20188;-70
2020/12/22 06:59:09;;;;;;;66.97;35.17;;;;;;;4.67;98.64;96679.78;5071632;28;20286;-68
2020/12/22 07:01:37;;;;;;;80.70;40.40;;;;;;;4.67;99.11;96679.78;5071263;28;20875;-70
2020/12/22 07:04:20;;;;;;;71.10;36.40;;;;;;;4.72;98.90;96670.34;5071295;28;20192;-69
2020/12/22 07:06:59;;;;;;;92.10;43.80;;;;;;;4.80;98.28;96676.94;5071616;28;20222;-69
2020/12/22 07:09:30;;;;;;;88.90;41.10;;;;;;;4.82;98.13;96669.00;5071461;28;20197;-70
2020/12/22 07:12:22;;;;;;;91.37;45.77;;;;;;;4.79;98.88;96662.50;5070059;28;20190;-70
2020/12/22 07:14:51;;;;;;;110.07;56.07;;;;;;;4.85;99.40;96666.75;5070760;28;20247;-70
2020/12/22 07:17:19;;;;;;;95.07;49.03;;;;;;;4.90;98.53;96666.84;5070746;28;20208;-70
2020/12/22 07:19:47;;;;;;;67.80;37.33;;;;;;;4.88;98.16;96668.09;5071012;28;20234;-69
2020/12/22 07:22:17;;;;;;;67.17;35.70;;;;;;;4.90;97.38;96669.41;5070727;28;20232;-69
2020/12/22 07:24:44;;;;;;;58.77;35.80;;;;;;;4.81;98.23;96664.84;5070784;28;20192;-69
2020/12/22 07:27:11;;;;;;;71.67;39.77;;;;;;;4.95;98.80;96666.94;5070765;28;20193;-70
2020/12/22 07:29:39;;;;;;;68.00;40.07;;;;;;;5.03;98.26;96666.56;5070613;28;21025;-70
2020/12/22 07:32:07;;;;;;;68.20;36.07;;;;;;;5.07;98.12;96666.91;5070939;28;20266;-71
2020/12/22 07:34:35;;;;;;;64.77;37.70;;;;;;;4.99;97.90;96654.38;5070727;28;20216;-70
2020/12/22 07:37:06;;;;;;;68.57;37.07;;;;;;;5.06;98.59;96658.41;5070485;28;20196;-70
2020/12/22 07:39:35;;;;;;;68.13;36.97;;;;;;;5.12;98.35;96662.63;5070553;28;20203;-69
2020/12/22 07:42:12;;;;;;;53.23;31.70;;;;;;;5.27;96.91;96669.06;5070238;28;20294;-71
2020/12/22 07:44:39;;;;;;;52.00;29.23;;;;;;;5.27;95.91;96663.91;5070453;28;20701;-69
2020/12/22 07:47:08;;;;;;;61.43;33.23;;;;;;;5.29;95.47;96667.03;5070544;28;20200;-70
2020/12/22 07:49:35;;;;;;;51.40;29.73;;;;;;;5.34;95.25;96667.13;5070446;28;20196;-70
2020/12/22 07:52:02;;;;;;;42.50;25.70;;;;;;;5.41;95.07;96666.00;5070280;28;20198;-71
2020/12/22 07:54:29;;;;;;;38.50;21.77;;;;;;;5.49;93.92;96675.13;5070459;28;20260;-69
2020/12/22 07:56:59;;;;;;;38.53;21.93;;;;;;;5.57;92.50;96674.78;5070509;28;20192;-69
2020/12/22 07:59:28;;;;;;;42.93;24.00;;;;;;;5.64;92.01;96672.81;5070405;28;20573;-70
2020/12/22 08:01:55;;;;;;;42.33;25.00;;;;;;;5.53;92.65;96678.81;5070002;28;20234;-67
2020/12/22 08:04:23;;;;;;;64.93;31.60;;;;;;;5.56;92.54;96674.00;5070349;28;20693;-70
2020/12/22 08:06:57;;;;;;;47.70;28.53;;;;;;;5.60;92.24;96669.13;5070132;28;20583;-71
2020/12/22 08:09:28;;;;;;;50.37;28.73;;;;;;;5.66;91.90;96673.38;5070241;28;20194;-71
2020/12/22 08:11:57;;;;;;;50.60;30.57;;;;;;;5.75;91.88;96673.78;5070151;28;20207;-71
2020/12/22 08:14:26;;;;;;;68.30;36.63;;;;;;;5.79;92.42;96672.28;5070137;28;20205;-72
2020/12/22 08:16:56;;;;;;;62.20;32.03;;;;;;;5.81;92.13;96667.69;5070182;28;20193;-70
2020/12/22 08:19:23;;;;;;;64.20;33.00;;;;;;;5.83;91.97;96658.69;5070133;28;20233;-71
2020/12/22 08:21:55;;;;;;;54.50;28.37;;;;;;;5.76;91.19;96658.06;5069906;28;20233;-69
2020/12/22 08:24:22;;;;;;;48.63;29.70;;;;;;;5.55;92.41;96663.91;5070033;28;20198;-70
2020/12/22 08:26:50;;;;;;;44.93;27.27;;;;;;;5.57;93.05;96667.03;5070005;28;20206;-69
2020/12/22 08:29:17;;;;;;;59.83;31.50;;;;;;;5.63;93.63;96663.50;5069940;28;20196;-70
2020/12/22 08:31:46;;;;;;;114.87;46.00;;;;;;;5.95;93.04;96656.06;5069862;28;20206;-70
2020/12/22 08:34:16;;;;;;;74.73;33.97;;;;;;;6.07;91.98;96661.16;5069892;28;20197;-69
2020/12/22 08:36:43;;;;;;;105.07;44.63;;;;;;;6.28;91.12;96650.09;5070129;28;20264;-70
2020/12/22 08:39:15;;;;;;;57.70;32.57;;;;;;;6.29;88.88;96659.41;5069753;28;20196;-70
2020/12/22 08:41:43;;;;;;;76.40;37.83;;;;;;;6.32;89.38;96656.38;5069856;28;20232;-71
2020/12/22 08:44:11;;;;;;;58.50;31.97;;;;;;;6.27;89.84;96661.44;5069804;28;20235;-69
2020/12/22 08:46:38;;;;;;;56.10;31.50;;;;;;;6.25;89.71;96653.16;5069832;28;20200;-70
2020/12/22 08:49:14;;;;;;;51.20;29.13;;;;;;;6.18;89.99;96655.88;5069999;28;20253;-71
2020/12/22 08:51:41;;;;;;;47.40;26.83;;;;;;;6.44;88.15;96657.81;5069677;28;20197;-71
2020/12/22 08:54:09;;;;;;;39.70;23.27;;;;;;;6.26;89.09;96663.25;5069885;28;20197;-68
2020/12/22 08:56:37;;;;;;;37.87;23.33;;;;;;;6.11;88.37;96657.88;5069667;28;20290;-72
2020/12/22 08:59:05;;;;;;;39.70;24.03;;;;;;;6.19;89.39;96662.63;5069703;28;20261;-71
2020/12/22 09:01:40;;;;;;;40.57;23.20;;;;;;;6.29;89.05;96657.59;5069812;28;20607;-71
2020/12/22 09:04:08;;;;;;;39.20;23.03;;;;;;;6.39;90.13;96651.78;5069737;28;20784;-70
2020/12/22 09:06:38;;;;;;;34.60;20.90;;;;;;;6.48;88.47;96651.16;5069617;28;20254;-69
2020/12/22 09:09:06;;;;;;;35.17;19.80;;;;;;;6.41;87.36;96649.78;5069737;28;20856;-71
2020/12/22 09:11:33;;;;;;;29.80;18.20;;;;;;;6.47;87.32;96654.00;5069564;28;20675;-72
2020/12/22 09:14:05;;;;;;;23.17;15.40;;;;;;;6.57;87.74;96648.97;5069706;28;20196;-71
2020/12/22 09:16:51;;;;;;;26.83;15.00;;;;;;;6.50;86.81;96640.59;5069377;28;20201;-72
2020/12/22 09:19:20;;;;;;;21.83;14.03;;;;;;;6.58;86.04;96645.34;5069581;28;20275;-71
2020/12/22 09:21:56;;;;;;;24.33;14.17;;;;;;;6.37;85.82;96648.69;5069521;28;20232;-70
2020/12/22 09:24:23;;;;;;;18.53;12.17;;;;;;;6.54;84.85;96644.25;5069464;28;20566;-70
2020/12/22 09:26:57;;;;;;;19.50;12.40;;;;;;;6.54;85.13;96641.66;5069293;28;20691;-71
2020/12/22 09:29:25;;;;;;;17.23;11.07;;;;;;;6.56;85.06;96647.38;5069628;28;20252;-71
2020/12/22 09:31:53;;;;;;;19.37;11.33;;;;;;;6.63;85.99;96640.22;5069516;28;20200;-72
2020/12/22 09:34:20;;;;;;;15.33;8.73;;;;;;;6.72;85.07;96646.56;5070490;28;20689;-72
2020/12/22 09:36:52;;;;;;;18.00;10.10;;;;;;;6.78;84.53;96639.63;5072953;28;20208;-72
2020/12/22 09:39:19;;;;;;;19.53;9.87;;;;;;;6.84;83.33;96631.72;5073299;28;20215;-70
2020/12/22 09:41:46;;;;;;;19.17;11.40;;;;;;;6.85;83.57;96630.69;5072969;28;20690;-70
2020/12/22 09:44:13;;;;;;;18.90;11.07;;;;;;;6.76;84.38;96634.72;5072774;28;20249;-71
2020/12/22 09:46:40;;;;;;;19.47;11.70;;;;;;;6.84;86.01;96631.72;5072505;28;20551;-70
2020/12/22 09:49:08;;;;;;;21.93;12.13;;;;;;;6.96;84.54;96638.56;5072889;28;20214;-70
2020/12/22 09:51:35;;;;;;;18.70;11.10;;;;;;;6.93;85.86;96630.25;5072855;28;20204;-71
2020/12/22 09:54:02;;;;;;;25.57;12.63;;;;;;;6.91;85.39;96624.56;5072631;28;20199;-71
2020/12/22 09:56:31;;;;;;;21.30;13.20;;;;;;;7.01;85.65;96617.94;5072704;28;20196;-70
2020/12/22 09:58:58;;;;;;;22.63;12.77;;;;;;;7.00;82.03;96617.16;5072687;28;20188;-69
2020/12/22 10:01:26;;;;;;;27.33;14.97;;;;;;;7.16;81.02;96623.28;5072685;28;20245;-69
2020/12/22 10:03:53;;;;;;;35.17;17.07;;;;;;;7.08;81.37;96621.09;5072453;28;20204;-70
2020/12/22 10:06:21;;;;;;;32.50;18.80;;;;;;;7.09;81.15;96609.75;5072714;28;20199;-72
2020/12/22 10:08:48;;;;;;;39.00;17.53;;;;;;;7.11;80.32;96607.72;5072475;28;20199;-70
2020/12/22 10:11:16;;;;;;;41.17;21.63;;;;;;;7.18;80.94;96605.69;5072268;28;20196;-70
2020/12/22 10:13:43;;;;;;;29.33;16.03;;;;;;;7.12;81.04;96607.47;5072471;28;20196;-69
2020/12/22 10:16:11;;;;;;;26.93;16.60;;;;;;;7.05;80.70;96603.50;5072356;28;20200;-70
2020/12/22 10:18:39;;;;;;;31.30;18.03;;;;;;;6.99;80.92;96604.47;5072285;28;20679;-72
2020/12/22 10:21:07;;;;;;;31.07;15.93;;;;;;;6.99;82.04;96602.69;5072146;28;20235;-68
2020/12/22 10:23:34;;;;;;;27.50;16.00;;;;;;;7.04;81.82;96597.56;5072040;28;20196;-70
2020/12/22 10:26:05;;;;;;;30.53;17.53;;;;;;;6.90;82.81;96591.22;5072116;28;20192;-70
2020/12/22 10:28:34;;;;;;;30.17;18.60;;;;;;;7.06;83.27;96587.78;5071946;28;20196;-70
2020/12/22 10:31:01;;;;;;;33.33;18.77;;;;;;;7.01;83.87;96592.88;5072553;28;20221;-71
2020/12/22 10:33:28;;;;;;;32.93;18.37;;;;;;;6.98;83.33;96597.75;5071915;28;20196;-70
2020/12/22 10:35:55;;;;;;;34.43;18.97;;;;;;;7.10;83.02;96591.41;5072136;28;20220;-73
2020/12/22 10:38:23;;;;;;;86.33;42.53;;;;;;;7.27;83.52;96593.91;5072062;28;20635;-72
2020/12/22 10:40:50;;;;;;;56.57;30.23;;;;;;;7.53;83.25;96589.72;5071870;28;20200;-70
2020/12/22 10:43:17;;;;;;;35.83;20.50;;;;;;;7.63;83.12;96595.75;5071741;28;20776;-71
2020/12/22 10:45:45;;;;;;;36.07;20.83;;;;;;;7.59;81.55;96592.13;5071671;28;20192;-71
2020/12/22 10:48:12;;;;;;;37.00;21.73;;;;;;;7.56;83.11;96592.63;5071837;28;20197;-71
2020/12/22 10:50:39;;;;;;;34.57;18.77;;;;;;;7.52;83.64;96594.13;5071806;28;20198;-72
2020/12/22 10:53:07;;;;;;;116.10;51.97;;;;;;;7.70;82.51;96592.97;5071564;28;20653;-72
2020/12/22 10:55:34;;;;;;;87.10;40.33;;;;;;;7.70;83.57;96586.00;5071483;28;20199;-72
2020/12/22 10:58:01;;;;;;;35.90;20.67;;;;;;;7.70;82.81;96575.66;5071601;28;20196;-72
2020/12/22 11:00:28;;;;;;;33.20;19.60;;;;;;;7.84;83.32;96560.47;5071336;28;20273;-69
2020/12/22 11:02:56;;;;;;;32.87;20.37;;;;;;;7.95;82.55;96562.09;5071001;28;20232;-71
2020/12/22 11:06:09;;;;;;;34.67;18.73;;;;;;;8.03;82.06;96558.25;5071178;28;20759;-71
2020/12/22 11:08:39;;;;;;;30.67;17.53;;;;;;;8.04;80.89;96560.59;5071215;28;20192;-69
2020/12/22 11:11:07;;;;;;;33.83;18.77;;;;;;;8.09;79.58;96562.44;5071334;28;20200;-71
2020/12/22 11:13:34;;;;;;;34.73;19.33;;;;;;;8.04;80.17;96552.06;5071314;28;20227;-71
2020/12/22 11:16:01;;;;;;;35.77;19.17;;;;;;;7.96;81.08;96552.53;5070953;28;20203;-71
2020/12/22 11:18:28;;;;;;;35.07;19.53;;;;;;;7.90;81.73;96553.53;5070787;28;20196;-72
2020/12/22 11:20:55;;;;;;;36.80;19.80;;;;;;;7.81;81.03;96549.84;5070878;28;20201;-67
2020/12/22 11:23:22;;;;;;;35.07;19.33;;;;;;;8.06;82.24;96537.06;5070936;28;20205;-64
2020/12/22 11:25:49;;;;;;;34.10;18.30;;;;;;;8.09;79.79;96541.72;5070831;28;20204;-73
2020/12/22 11:28:16;;;;;;;34.00;19.80;;;;;;;7.74;79.38;96540.50;5070686;28;20192;-71
2020/12/22 11:30:42;;;;;;;34.90;19.40;;;;;;;7.67;80.01;96539.16;5070679;28;20583;-68
2020/12/22 11:33:10;;;;;;;35.43;19.67;;;;;;;7.90;80.69;96533.59;5070574;28;20245;-70
2020/12/22 11:35:37;;;;;;;36.20;20.70;;;;;;;7.93;80.15;96532.31;5070829;28;20209;-71